createdAt,value
2022-09-06T00:01:23.417Z,61.58
2022-09-06T00:03:50.984Z,61.20
2022-09-06T00:06:19.825Z,61.47
2022-09-06T00:08:47.886Z,61.71
2022-09-06T00:11:15.693Z,61.88
2022-09-06T00:13:42.563Z,61.81
2022-09-06T00:16:14.015Z,62.14
2022-09-06T00:18:41.600Z,61.90
2022-09-06T00:21:21.442Z,62.90
2022-09-06T00:23:48.301Z,62.37
2022-09-06T00:26:15.649Z,62.51
2022-09-06T00:28:42.791Z,62.28
2022-09-06T00:31:16.750Z,61.82
2022-09-06T00:33:43.650Z,61.42
2022-09-06T00:36:11.520Z,61.42
2022-09-06T00:38:38.719Z,61.63
2022-09-06T00:41:07.043Z,61.85
2022-09-06T00:43:33.700Z,62.86
2022-09-06T00:46:01.372Z,63.07
2022-09-06T00:48:28.262Z,63.97
2022-09-06T00:51:00.240Z,63.90
2022-09-06T00:53:27.558Z,63.40
2022-09-06T00:55:54.941Z,62.90
2022-09-06T00:58:22.290Z,62.70
2022-09-06T01:00:48.824Z,62.59
2022-09-06T01:03:15.739Z,62.39
2022-09-06T01:06:09.613Z,62.25
2022-09-06T01:09:04.783Z,64.16
2022-09-06T01:12:02.738Z,65.31
2022-09-06T01:14:58.692Z,62.49
2022-09-06T01:18:08.898Z,62.43
2022-09-06T01:21:10.014Z,65.13
2022-09-06T01:24:29.162Z,62.78
2022-09-06T01:27:21.506Z,63.13
2022-09-06T01:29:55.380Z,63.47
2022-09-06T01:32:33.282Z,64.73
2022-09-06T01:35:22.464Z,63.48
2022-09-06T01:37:49.241Z,63.53
2022-09-06T01:40:15.845Z,63.52
2022-09-06T01:42:45.427Z,64.27
2022-09-06T01:45:16.342Z,65.09
2022-09-06T01:48:17.121Z,66.78
2022-09-06T01:51:10.572Z,64.63
2022-09-06T01:53:51.072Z,65.59
2022-09-06T01:56:17.724Z,66.00
2022-09-06T01:59:06.146Z,64.36
2022-09-06T02:01:44.431Z,66.47
2022-09-06T02:04:32.021Z,66.94
2022-09-06T02:07:03.210Z,66.08
2022-09-06T02:09:35.253Z,64.65
2022-09-06T02:12:04.344Z,65.49
2022-09-06T02:14:39.729Z,64.98
2022-09-06T02:17:12.332Z,65.50
2022-09-06T02:19:54.984Z,65.86
2022-09-06T02:22:24.342Z,66.46
2022-09-06T02:24:53.916Z,66.13
2022-09-06T02:27:20.711Z,65.85
2022-09-06T02:29:48.304Z,66.56
2022-09-06T02:32:21.110Z,67.52
2022-09-06T02:34:50.340Z,66.85
2022-09-06T02:37:17.855Z,67.45
2022-09-06T02:39:44.702Z,67.08
2022-09-06T02:42:14.367Z,67.59
2022-09-06T02:44:41.045Z,67.73
2022-09-06T02:47:07.688Z,66.92
2022-09-06T02:49:34.678Z,67.19
2022-09-06T02:52:01.296Z,68.66
2022-09-06T02:54:27.822Z,67.45
2022-09-06T02:56:54.745Z,67.26
2022-09-06T02:59:21.220Z,67.30
2022-09-06T03:01:47.803Z,67.67
2022-09-06T03:04:14.397Z,67.98
2022-09-06T03:06:40.872Z,68.14
2022-09-06T03:09:07.375Z,68.64
2022-09-06T03:11:34.100Z,68.71
2022-09-06T03:14:00.805Z,68.84
2022-09-06T03:16:27.545Z,69.03
2022-09-06T03:18:54.209Z,69.06
2022-09-06T03:21:21.041Z,69.10
2022-09-06T03:23:47.564Z,68.79
2022-09-06T03:26:14.129Z,70.25
2022-09-06T03:28:41.192Z,70.65
2022-09-06T03:31:07.855Z,70.47
2022-09-06T03:33:34.550Z,70.63
2022-09-06T03:36:03.300Z,70.35
2022-09-06T03:38:30.477Z,70.75
2022-09-06T03:40:57.474Z,70.84
2022-09-06T03:43:25.369Z,70.89
2022-09-06T03:45:54.457Z,70.99
2022-09-06T03:48:22.864Z,70.47
2022-09-06T03:50:52.515Z,70.56
2022-09-06T03:53:19.355Z,70.51
2022-09-06T03:55:50.862Z,71.29
2022-09-06T03:58:19.109Z,70.51
2022-09-06T04:00:46.334Z,70.49
2022-09-06T04:03:13.264Z,71.07
2022-09-06T04:05:40.115Z,70.75
2022-09-06T04:08:07.123Z,70.82
2022-09-06T04:10:33.993Z,71.06
2022-09-06T04:13:00.519Z,71.40
2022-09-06T04:15:26.988Z,71.13
2022-09-06T04:17:53.762Z,72.15
2022-09-06T04:20:20.474Z,72.51
2022-09-06T04:22:47.038Z,71.62
2022-09-06T04:25:13.927Z,71.00
2022-09-06T04:27:40.619Z,71.46
2022-09-06T04:30:08.002Z,72.22
2022-09-06T04:32:34.647Z,72.14
2022-09-06T04:35:01.281Z,72.58
2022-09-06T04:37:28.317Z,72.62
2022-09-06T04:39:55.600Z,72.89
2022-09-06T04:42:22.182Z,72.50
2022-09-06T04:44:48.697Z,72.67
2022-09-06T04:47:18.205Z,73.03
2022-09-06T04:49:45.747Z,73.21
2022-09-06T04:52:12.485Z,73.06
2022-09-06T04:54:39.323Z,73.22
2022-09-06T04:57:06.167Z,73.22
2022-09-06T04:59:33.080Z,73.53
2022-09-06T05:01:59.896Z,73.05
2022-09-06T05:04:26.851Z,73.04
2022-09-06T05:07:06.017Z,73.21
2022-09-06T05:09:33.648Z,72.13
2022-09-06T05:12:00.822Z,71.48
2022-09-06T05:14:28.525Z,71.53
2022-09-06T05:16:55.165Z,71.87
2022-09-06T05:19:21.937Z,71.91
2022-09-06T05:21:48.810Z,72.18
2022-09-06T05:24:15.448Z,72.18
2022-09-06T05:26:42.092Z,72.32
2022-09-06T05:29:08.624Z,72.32
2022-09-06T05:31:35.836Z,72.36
2022-09-06T05:34:02.619Z,72.42
2022-09-06T05:36:30.868Z,72.38
2022-09-06T05:38:59.405Z,72.20
2022-09-06T05:41:26.895Z,72.54
2022-09-06T05:43:53.794Z,72.48
2022-09-06T05:46:20.962Z,72.67
2022-09-06T05:49:01.361Z,73.24
2022-09-06T05:51:27.952Z,72.12
2022-09-06T05:53:55.554Z,72.00
2022-09-06T05:56:22.622Z,72.18
2022-09-06T05:58:49.204Z,72.07
2022-09-06T06:01:35.812Z,73.07
2022-09-06T06:04:05.318Z,72.26
2022-09-06T06:06:34.067Z,72.58
2022-09-06T06:09:00.987Z,72.46
2022-09-06T06:11:28.234Z,72.34
2022-09-06T06:13:55.323Z,72.22
2022-09-06T06:16:23.171Z,72.42
2022-09-06T06:18:52.353Z,72.53
2022-09-06T06:21:25.574Z,72.85
2022-09-06T06:23:54.122Z,72.91
2022-09-06T06:26:22.072Z,72.83
2022-09-06T06:28:50.052Z,73.19
2022-09-06T06:31:16.782Z,73.26
2022-09-06T06:33:44.490Z,72.97
2022-09-06T06:36:16.310Z,73.99
2022-09-06T06:38:45.201Z,73.08
2022-09-06T06:41:14.520Z,72.61
2022-09-06T06:43:41.522Z,72.95
2022-09-06T06:46:16.244Z,73.46
2022-09-06T06:48:44.208Z,72.73
2022-09-06T06:51:14.993Z,72.42
2022-09-06T06:53:41.671Z,72.19
2022-09-06T06:56:22.187Z,72.45
2022-09-06T06:58:51.481Z,72.17
2022-09-06T07:01:20.560Z,72.19
2022-09-06T07:03:47.304Z,72.09
2022-09-06T07:06:16.977Z,72.08
2022-09-06T07:08:43.737Z,72.35
2022-09-06T07:11:12.300Z,71.91
2022-09-06T07:13:39.345Z,71.96
2022-09-06T07:16:20.947Z,72.31
2022-09-06T07:18:51.388Z,72.07
2022-09-06T07:21:41.712Z,72.12
2022-09-06T07:24:09.380Z,72.26
2022-09-06T07:26:38.505Z,72.17
2022-09-06T07:29:08.895Z,72.18
2022-09-06T07:34:25.794Z,71.87
2022-09-06T07:36:53.955Z,72.07
2022-09-06T07:39:20.979Z,71.77
2022-09-06T07:41:50.731Z,71.93
2022-09-06T07:44:17.449Z,71.94
2022-09-06T07:46:44.449Z,71.77
2022-09-06T07:49:11.139Z,71.52
2022-09-06T07:51:37.994Z,71.37
2022-09-06T07:54:28.796Z,71.28
2022-09-06T07:56:53.865Z,71.20
2022-09-06T07:59:20.611Z,70.95
2022-09-06T08:01:48.349Z,71.00
2022-09-06T08:04:15.658Z,70.84
2022-09-06T08:09:38.941Z,70.25
2022-09-06T08:12:08.849Z,70.02
2022-09-06T08:14:36.172Z,69.74
2022-09-06T08:17:05.058Z,69.83
2022-09-06T08:19:31.845Z,69.49
2022-09-06T08:21:58.814Z,69.74
2022-09-06T08:24:25.753Z,69.18
2022-09-06T08:26:52.852Z,68.99
2022-09-06T08:29:22.087Z,69.06
2022-09-06T08:31:49.311Z,68.60
2022-09-06T08:34:16.067Z,67.98
2022-09-06T08:36:42.955Z,68.23
2022-09-06T08:39:10.382Z,67.90
2022-09-06T08:41:57.905Z,67.64
2022-09-06T08:47:18.312Z,67.70
2022-09-06T08:49:52.910Z,66.66
2022-09-06T08:53:13.108Z,66.23
2022-09-06T08:55:55.711Z,65.96
2022-09-06T08:58:35.836Z,65.32
2022-09-06T09:01:08.182Z,65.51
2022-09-06T09:03:40.461Z,66.02
2022-09-06T09:06:10.393Z,66.08
2022-09-06T09:08:45.002Z,64.57
2022-09-06T09:11:18.730Z,65.13
2022-09-06T09:14:08.772Z,64.97
2022-09-06T09:16:35.883Z,64.92
2022-09-06T09:19:05.648Z,63.17
2022-09-06T09:21:36.474Z,63.35
2022-09-06T09:24:07.650Z,63.67
2022-09-06T09:26:44.747Z,61.94
2022-09-06T09:29:14.043Z,62.95
2022-09-06T09:31:53.736Z,62.42
2022-09-06T09:34:37.825Z,60.03
2022-09-06T09:40:05.306Z,62.29
2022-09-06T09:42:35.722Z,60.16
2022-09-06T09:45:06.925Z,61.76
2022-09-06T09:47:34.325Z,60.76
2022-09-06T09:50:01.505Z,58.32
2022-09-06T09:52:32.138Z,60.32
2022-09-06T09:55:05.148Z,60.02
2022-09-06T09:57:45.612Z,60.32
2022-09-06T10:00:13.356Z,60.27
2022-09-06T10:02:42.199Z,59.92
2022-09-06T10:05:19.128Z,59.30
2022-09-06T10:07:52.847Z,59.51
2022-09-06T10:10:25.047Z,58.57
2022-09-06T10:13:19.147Z,58.68
2022-09-06T10:15:46.637Z,59.06
2022-09-06T10:18:39.032Z,58.17
2022-09-06T10:21:16.066Z,57.77
2022-09-06T10:26:56.257Z,57.32
2022-09-06T10:29:53.368Z,57.14
2022-09-06T10:32:51.270Z,57.31
2022-09-06T10:35:41.672Z,56.52
2022-09-06T10:38:32.359Z,56.50
2022-09-06T10:41:25.171Z,53.09
2022-09-06T10:44:08.462Z,55.62
2022-09-06T10:46:36.337Z,55.33
2022-09-06T10:49:05.037Z,55.20
2022-09-06T10:51:54.620Z,54.64
2022-09-06T10:54:24.156Z,55.04
2022-09-06T11:00:06.792Z,54.16
2022-09-06T11:02:45.924Z,52.31
2022-09-06T11:11:19.792Z,53.45
2022-09-06T11:13:47.427Z,53.31
2022-09-06T11:16:28.359Z,52.89
2022-09-06T11:19:06.556Z,53.06
2022-09-06T11:21:51.251Z,52.72
2022-09-06T11:24:32.891Z,51.85
2022-09-06T11:27:14.083Z,51.86
2022-09-06T11:29:45.243Z,51.94
2022-09-06T11:32:35.146Z,51.92
2022-09-06T11:35:10.155Z,51.46
2022-09-06T11:37:40.945Z,51.60
2022-09-06T11:42:59.508Z,51.24
2022-09-06T11:45:50.671Z,50.99
2022-09-06T11:48:34.411Z,50.62
2022-09-06T11:51:03.332Z,50.98
2022-09-06T11:53:54.875Z,49.27
2022-09-06T11:56:42.704Z,50.13
2022-09-06T11:59:32.183Z,49.22
2022-09-06T12:02:03.025Z,49.20
2022-09-06T12:05:17.751Z,50.43
2022-09-06T12:08:20.089Z,50.34
2022-09-06T12:10:50.747Z,50.49
2022-09-06T12:13:39.826Z,50.43
2022-09-06T12:16:07.951Z,50.35
2022-09-06T12:18:51.969Z,50.14
2022-09-06T12:21:39.676Z,50.12
2022-09-06T12:24:34.786Z,49.74
2022-09-06T12:27:22.339Z,49.64
2022-09-06T12:29:54.636Z,49.57
2022-09-06T12:32:28.561Z,49.42
2022-09-06T12:38:05.026Z,49.26
2022-09-06T12:40:40.945Z,49.15
2022-09-06T12:43:10.653Z,48.83
2022-09-06T12:45:43.320Z,48.91
2022-09-06T12:48:13.446Z,48.39
2022-09-06T12:50:41.198Z,48.18
2022-09-06T12:53:25.799Z,48.13
2022-09-06T12:56:07.399Z,47.55
2022-09-06T12:58:35.866Z,47.77
2022-09-06T13:01:12.818Z,47.26
2022-09-06T13:03:43.468Z,47.15
2022-09-06T13:06:22.137Z,47.12
2022-09-06T13:08:55.694Z,47.13
2022-09-06T13:11:39.235Z,46.78
2022-09-06T13:14:17.480Z,47.21
2022-09-06T13:16:48.830Z,47.22
2022-09-06T13:19:19.022Z,46.54
2022-09-06T13:21:47.056Z,46.50
2022-09-06T13:24:49.928Z,45.70
2022-09-06T13:27:26.349Z,45.64
2022-09-06T13:30:00.828Z,45.97
2022-09-06T13:32:28.457Z,46.09
2022-09-06T13:34:59.106Z,45.80
2022-09-06T13:37:29.888Z,46.04
2022-09-06T13:39:57.843Z,46.17
2022-09-06T13:42:39.150Z,45.60
2022-09-06T13:45:28.891Z,45.81
2022-09-06T13:48:07.920Z,45.67
2022-09-06T13:50:42.431Z,45.05
2022-09-06T13:53:09.089Z,45.23
2022-09-06T13:55:37.908Z,44.96
2022-09-06T13:58:04.478Z,44.95
2022-09-06T14:00:31.394Z,44.39
2022-09-06T14:02:59.237Z,44.10
2022-09-06T14:05:25.997Z,44.76
2022-09-06T14:07:52.777Z,44.70
2022-09-06T14:10:21.811Z,45.00
2022-09-06T14:12:48.416Z,44.62
2022-09-06T14:15:15.212Z,44.95
2022-09-06T14:17:42.151Z,44.83
2022-09-06T14:20:09.405Z,43.82
2022-09-06T14:22:35.974Z,43.88
2022-09-06T14:25:02.621Z,44.05
2022-09-06T14:27:29.329Z,43.29
2022-09-06T14:29:56.365Z,43.44
2022-09-06T14:32:23.146Z,43.56
2022-09-06T14:34:49.771Z,43.09
2022-09-06T14:37:16.644Z,43.21
2022-09-06T14:39:43.691Z,43.06
2022-09-06T14:42:10.335Z,43.12
2022-09-06T14:44:37.081Z,42.77
2022-09-06T14:47:03.839Z,42.38
2022-09-06T14:49:32.975Z,42.45
2022-09-06T14:51:59.503Z,42.25
2022-09-06T14:54:29.322Z,42.34
2022-09-06T14:56:56.629Z,41.35
2022-09-06T14:59:23.377Z,41.81
2022-09-06T15:01:50.105Z,41.28
2022-09-06T15:04:19.467Z,41.23
2022-09-06T15:06:50.148Z,41.40
2022-09-06T15:09:18.099Z,41.69
2022-09-06T15:11:49.264Z,41.61
2022-09-06T15:14:19.460Z,41.45
2022-09-06T15:16:50.835Z,41.44
2022-09-06T15:19:20.018Z,41.84
2022-09-06T15:21:49.923Z,41.81
2022-09-06T15:24:16.635Z,42.06
2022-09-06T15:26:43.887Z,41.89
2022-09-06T15:29:13.251Z,41.95
2022-09-06T15:31:41.812Z,42.01
2022-09-06T15:34:09.880Z,42.53
2022-09-06T15:36:37.312Z,42.37
2022-09-06T15:39:05.029Z,42.28
2022-09-06T15:41:35.700Z,42.51
2022-09-06T15:44:08.109Z,42.75
2022-09-06T15:46:55.373Z,42.73
2022-09-06T15:49:28.653Z,43.41
2022-09-06T15:51:58.217Z,42.77
2022-09-06T15:54:45.676Z,42.87
2022-09-06T15:57:13.694Z,42.92
2022-09-06T15:59:41.148Z,43.43
2022-09-06T16:02:11.449Z,43.14
2022-09-06T16:04:38.371Z,43.42
2022-09-06T16:07:05.986Z,43.29
2022-09-06T16:09:34.850Z,43.11
2022-09-06T16:12:01.576Z,43.27
2022-09-06T16:14:29.133Z,43.53
2022-09-06T16:16:57.394Z,43.36
2022-09-06T16:19:25.980Z,43.67
2022-09-06T16:21:54.293Z,43.84
2022-09-06T16:24:21.384Z,43.49
2022-09-06T16:26:48.122Z,43.87
2022-09-06T16:29:16.594Z,43.79
2022-09-06T16:31:43.156Z,43.92
2022-09-06T16:34:11.030Z,44.03
2022-09-06T16:36:38.459Z,43.78
2022-09-06T16:39:05.738Z,43.42
2022-09-06T16:41:43.568Z,44.16
2022-09-06T16:44:16.852Z,44.10
2022-09-06T16:46:46.310Z,43.72
2022-09-06T16:49:16.883Z,43.97
2022-09-06T16:51:44.302Z,44.10
2022-09-06T16:54:11.107Z,44.05
2022-09-06T16:56:38.274Z,44.44
2022-09-06T16:59:07.067Z,44.08
2022-09-06T17:01:36.110Z,44.38
2022-09-06T17:04:04.081Z,44.32
2022-09-06T17:06:32.466Z,44.54
2022-09-06T17:08:59.475Z,44.66
2022-09-06T17:11:28.829Z,45.01
2022-09-06T17:13:56.553Z,44.61
2022-09-06T17:16:42.121Z,44.91
2022-09-06T17:19:10.262Z,45.21
2022-09-06T17:21:39.145Z,44.77
2022-09-06T17:24:07.555Z,44.58
2022-09-06T17:26:36.455Z,44.60
2022-09-06T17:29:04.414Z,44.48
2022-09-06T17:31:31.515Z,44.51
2022-09-06T17:33:59.824Z,44.58
2022-09-06T17:36:29.531Z,44.69
2022-09-06T17:39:12.142Z,44.53
2022-09-06T17:41:45.700Z,44.52
2022-09-06T17:44:14.526Z,44.88
2022-09-06T17:46:57.162Z,44.60
2022-09-06T17:49:29.130Z,44.91
2022-09-06T17:51:55.747Z,44.88
2022-09-06T17:54:22.623Z,44.87
2022-09-06T17:56:49.342Z,45.22
2022-09-06T17:59:16.324Z,44.66
2022-09-06T18:01:44.689Z,44.98
2022-09-06T18:04:12.700Z,45.05
2022-09-06T18:06:41.330Z,45.24
2022-09-06T18:09:11.997Z,45.52
2022-09-06T18:11:40.075Z,44.99
2022-09-06T18:14:10.201Z,45.46
2022-09-06T18:16:39.386Z,45.20
2022-09-06T18:19:07.649Z,45.04
2022-09-06T18:21:37.921Z,45.32
2022-09-06T18:24:05.153Z,45.42
2022-09-06T18:26:32.061Z,46.02
2022-09-06T18:28:59.665Z,46.06
2022-09-06T18:31:27.616Z,46.13
2022-09-06T18:33:58.088Z,46.40
2022-09-06T18:36:29.925Z,46.02
2022-09-06T18:39:02.874Z,46.97
2022-09-06T18:41:48.194Z,46.55
2022-09-06T18:44:15.128Z,46.57
2022-09-06T18:46:42.125Z,46.72
2022-09-06T18:49:11.195Z,47.46
2022-09-06T18:51:39.575Z,47.68
2022-09-06T18:54:07.256Z,47.99
2022-09-06T18:56:33.804Z,48.07
2022-09-06T18:59:02.321Z,48.31
2022-09-06T19:01:30.451Z,48.46
2022-09-06T19:03:58.256Z,48.49
2022-09-06T19:06:25.812Z,48.79
2022-09-06T19:08:53.742Z,48.96
2022-09-06T19:11:22.041Z,49.14
2022-09-06T19:13:55.071Z,49.32
2022-09-06T19:16:23.338Z,49.19
2022-09-06T19:18:50.766Z,49.50
2022-09-06T19:21:19.426Z,50.16
2022-09-06T19:23:50.300Z,49.82
2022-09-06T19:26:20.308Z,50.16
2022-09-06T19:28:55.935Z,50.09
2022-09-06T19:31:24.571Z,49.39
2022-09-06T19:33:51.828Z,49.61
2022-09-06T19:36:20.079Z,49.26
2022-09-06T19:39:03.027Z,49.49
2022-09-06T19:41:31.806Z,50.06
2022-09-06T19:43:59.011Z,50.58
2022-09-06T19:46:26.678Z,51.42
2022-09-06T19:48:56.269Z,52.03
2022-09-06T19:51:24.007Z,52.37
2022-09-06T19:53:53.278Z,52.63
2022-09-06T19:56:23.569Z,52.75
2022-09-06T19:59:00.349Z,53.19
2022-09-06T20:01:29.707Z,52.40
2022-09-06T20:03:58.036Z,52.50
2022-09-06T20:06:25.385Z,52.00
2022-09-06T20:08:55.198Z,52.17
2022-09-06T20:11:23.590Z,52.10
2022-09-06T20:13:50.762Z,52.38
2022-09-06T20:16:20.610Z,51.95
2022-09-06T20:18:48.601Z,52.27
2022-09-06T20:21:17.854Z,52.23
2022-09-06T20:23:50.949Z,52.83
2022-09-06T20:26:18.508Z,52.28
2022-09-06T20:28:45.448Z,52.43
2022-09-06T20:31:18.639Z,52.96
2022-09-06T20:33:49.460Z,53.12
2022-09-06T20:36:17.366Z,53.02
2022-09-06T20:38:45.503Z,53.09
2022-09-06T20:41:13.537Z,53.42
2022-09-06T20:43:41.170Z,52.85
2022-09-06T20:46:12.211Z,55.01
2022-09-06T20:48:44.240Z,53.39
2022-09-06T20:51:15.057Z,53.54
2022-09-06T20:53:41.983Z,53.61
2022-09-06T20:56:18.346Z,54.43
2022-09-06T20:58:53.942Z,54.66
2022-09-06T21:01:24.106Z,57.87
2022-09-06T21:03:54.118Z,57.01
2022-09-06T21:11:21.771Z,58.59
2022-09-06T21:13:52.305Z,58.86
2022-09-06T21:16:24.334Z,58.97
2022-09-06T21:18:53.163Z,58.58
2022-09-06T21:21:20.086Z,58.02
2022-09-06T21:23:46.616Z,57.95
2022-09-06T21:26:15.897Z,57.23
2022-09-06T21:28:43.165Z,57.33
2022-09-06T21:31:22.434Z,57.42
2022-09-06T21:33:52.793Z,56.73
2022-09-06T21:36:30.187Z,56.54
2022-09-06T21:39:12.372Z,56.67
2022-09-06T21:41:41.076Z,56.56
2022-09-06T21:44:08.523Z,56.49
2022-09-06T21:46:37.772Z,56.28
2022-09-06T21:49:10.184Z,56.23
2022-09-06T21:51:36.945Z,56.01
2022-09-06T21:54:05.476Z,56.07
2022-09-06T21:56:34.405Z,55.62
2022-09-06T21:59:01.916Z,55.71
2022-09-06T22:01:33.929Z,55.81
2022-09-06T22:04:00.937Z,55.38
2022-09-06T22:06:29.159Z,55.21
2022-09-06T22:08:57.667Z,55.18
2022-09-06T22:11:28.854Z,55.05
2022-09-06T22:13:59.753Z,55.04
2022-09-06T22:16:28.077Z,55.03
2022-09-06T22:18:55.068Z,55.21
2022-09-06T22:21:22.120Z,56.37
2022-09-06T22:23:51.739Z,56.79
2022-09-06T22:26:19.824Z,57.46
2022-09-06T22:28:47.364Z,58.32
2022-09-06T22:31:14.358Z,58.49
2022-09-06T22:33:41.032Z,59.35
2022-09-06T22:36:07.823Z,61.37
2022-09-06T22:38:34.962Z,64.37
2022-09-06T22:41:01.854Z,66.81
2022-09-06T22:43:28.572Z,68.47
2022-09-06T22:46:02.556Z,72.48
2022-09-06T22:48:29.171Z,73.59
2022-09-06T22:50:55.911Z,76.87
2022-09-06T22:53:25.631Z,78.28
2022-09-06T22:55:52.143Z,79.52
2022-09-06T22:58:19.047Z,80.44
2022-09-06T23:00:45.884Z,82.17
2022-09-06T23:03:12.741Z,82.26
2022-09-06T23:05:39.480Z,85.16
2022-09-06T23:08:06.117Z,83.59
2022-09-06T23:10:33.112Z,84.34
2022-09-06T23:12:59.819Z,85.31
2022-09-06T23:15:26.367Z,84.51
2022-09-06T23:17:52.926Z,85.24
2022-09-06T23:20:19.521Z,85.24
2022-09-06T23:22:48.506Z,88.07
2022-09-06T23:25:15.092Z,86.06
2022-09-06T23:27:41.831Z,85.76
2022-09-06T23:30:09.200Z,86.45
2022-09-06T23:32:35.835Z,87.84
2022-09-06T23:35:02.523Z,85.85
2022-09-06T23:37:29.241Z,85.34
2022-09-06T23:39:55.962Z,85.90
2022-09-06T23:42:23.119Z,86.64
2022-09-06T23:44:51.231Z,86.15
2022-09-06T23:47:17.763Z,86.33
2022-09-06T23:49:45.428Z,87.78
2022-09-06T23:52:12.000Z,88.23
2022-09-06T23:54:38.696Z,88.34
2022-09-06T23:57:05.278Z,89.13
2022-09-06T23:59:32.708Z,87.47
